Time;durP1;ratioP1;P1;durP2;ratioP2;P2;SDS_P1;SDS_P2;PMS_P1;PMS_P2;Temp;Humidity;BMP_temperature;BMP_pressure;BME280_temperature;BME280_humidity;BME280_pressure;Samples;Min_cycle;Max_cycle;Signal;HPM_P1;HPM_P2
2022/10/18 00:02:14;;;;;;;0.40;0.40;;;17.00;99.90;;;;;;5050579;28;20819;-69
2022/10/18 00:05:02;;;;;;;0.82;0.82;;;17.00;99.90;;;;;;5052092;28;20193;-69
2022/10/18 00:07:50;;;;;;;0.40;0.40;;;17.00;99.90;;;;;;5054976;28;20225;-68
2022/10/18 00:10:38;;;;;;;0.40;0.40;;;17.00;99.90;;;;;;5055379;28;20670;-69
2022/10/18 00:13:26;;;;;;;0.40;0.40;;;17.00;99.90;;;;;;5054439;28;20299;-68
2022/10/18 00:16:17;;;;;;;0.40;0.40;;;17.00;99.90;;;;;;5054466;28;20654;-69
2022/10/18 00:19:06;;;;;;;0.40;0.40;;;17.00;99.90;;;;;;5054972;28;20296;-68
2022/10/18 00:21:54;;;;;;;0.40;0.40;;;17.00;99.90;;;;;;5054611;28;20300;-70
2022/10/18 00:24:42;;;;;;;0.40;0.40;;;16.90;99.90;;;;;;5054460;28;20205;-68
2022/10/18 00:27:31;;;;;;;0.40;0.40;;;16.90;99.90;;;;;;5054495;28;20208;-68
2022/10/18 00:30:19;;;;;;;0.40;0.40;;;17.00;99.90;;;;;;5054631;28;20356;-69
2022/10/18 00:33:08;;;;;;;0.40;0.40;;;17.00;99.90;;;;;;5054933;28;20339;-69
2022/10/18 00:35:59;;;;;;;0.40;0.40;;;17.00;99.90;;;;;;5054872;28;20346;-69
2022/10/18 00:38:49;;;;;;;0.40;0.40;;;16.90;99.90;;;;;;5054851;28;20257;-68
2022/10/18 00:41:37;;;;;;;0.40;0.40;;;16.90;99.90;;;;;;5053820;28;20277;-69
2022/10/18 00:45:02;;;;;;;0.40;0.40;;;16.90;99.90;;;;;;5055058;28;20208;-68
2022/10/18 00:47:54;;;;;;;0.40;0.40;;;16.90;99.90;;;;;;5052975;28;20209;-68
2022/10/18 00:50:44;;;;;;;0.40;0.40;;;16.80;99.90;;;;;;5046592;28;20218;-68
2022/10/18 00:53:33;;;;;;;0.40;0.40;;;16.80;99.90;;;;;;5034340;28;20311;-68
2022/10/18 00:56:21;;;;;;;0.40;0.40;;;16.80;99.90;;;;;;5035075;28;20229;-68
2022/10/18 00:59:09;;;;;;;0.40;0.40;;;16.80;99.90;;;;;;5033910;28;20276;-68
2022/10/18 01:01:57;;;;;;;0.40;0.40;;;16.90;99.90;;;;;;5033611;28;20301;-68
2022/10/18 01:04:46;;;;;;;0.40;0.40;;;16.90;99.90;;;;;;5035176;28;20216;-69
2022/10/18 01:07:51;;;;;;;0.40;0.40;;;16.90;99.90;;;;;;5033537;28;20699;-68
2022/10/18 01:10:47;;;;;;;0.40;0.40;;;16.90;99.90;;;;;;5031227;28;20288;-69
2022/10/18 01:13:58;;;;;;;0.40;0.40;;;16.90;99.90;;;;;;5040264;28;20666;-69
2022/10/18 01:16:53;;;;;;;0.40;0.40;;;16.80;99.90;;;;;;5034399;28;20807;-69
2022/10/18 01:20:07;;;;;;;0.40;0.40;;;16.90;99.90;;;;;;5033625;28;20226;-69
2022/10/18 01:23:02;;;;;;;24.25;23.38;;;16.90;99.90;;;;;;5034396;28;20359;-69
2022/10/18 01:25:57;;;;;;;0.40;0.40;;;16.80;99.90;;;;;;5034421;28;20194;-69
2022/10/18 01:28:57;;;;;;;0.40;0.40;;;16.80;99.90;;;;;;5034105;28;20258;-68
2022/10/18 01:31:49;;;;;;;0.40;0.40;;;16.80;99.90;;;;;;5034384;28;20197;-68
2022/10/18 01:34:41;;;;;;;0.40;0.40;;;16.80;99.90;;;;;;5034085;28;20288;-69
2022/10/18 01:37:31;;;;;;;0.40;0.40;;;16.80;99.90;;;;;;5034062;28;20289;-68
2022/10/18 01:40:22;;;;;;;0.40;0.40;;;16.80;99.90;;;;;;5033781;28;20706;-69
2022/10/18 01:43:11;;;;;;;0.40;0.40;;;16.90;99.90;;;;;;5034023;28;20737;-68
2022/10/18 01:46:01;;;;;;;0.40;0.40;;;16.90;99.90;;;;;;5033847;28;20278;-68
2022/10/18 01:48:52;;;;;;;1.75;1.65;;;17.00;99.90;;;;;;5033651;28;20297;-69
2022/10/18 01:51:40;;;;;;;0.50;0.50;;;17.00;99.90;;;;;;5050197;28;20219;-69
2022/10/18 01:54:32;;;;;;;0.40;0.40;;;17.10;99.90;;;;;;5053098;28;20621;-68
2022/10/18 01:57:26;;;;;;;0.35;0.35;;;17.10;99.90;;;;;;5053042;28;20251;-68
2022/10/18 02:00:18;;;;;;;0.40;0.40;;;17.20;99.90;;;;;;5052209;28;20233;-69
2022/10/18 02:03:14;;;;;;;0.40;0.40;;;17.20;99.90;;;;;;5051703;28;20217;-68
2022/10/18 02:06:09;;;;;;;0.40;0.40;;;17.20;99.90;;;;;;5051842;28;20201;-68
2022/10/18 02:09:02;;;;;;;0.40;0.40;;;17.20;99.90;;;;;;5051832;28;20302;-68
2022/10/18 02:11:53;;;;;;;0.40;0.40;;;17.20;99.90;;;;;;5052784;28;20189;-68
2022/10/18 02:14:44;;;;;;;0.40;0.40;;;17.30;99.90;;;;;;5052264;28;20247;-69
2022/10/18 02:17:32;;;;;;;0.40;0.40;;;17.20;99.90;;;;;;5053548;28;20700;-69
2022/10/18 02:20:23;;;;;;;0.40;0.40;;;17.30;99.90;;;;;;5053095;28;20308;-68
2022/10/18 02:23:16;;;;;;;0.40;0.40;;;17.30;99.90;;;;;;5051628;28;20242;-68
2022/10/18 02:26:05;;;;;;;0.40;0.40;;;17.30;99.90;;;;;;5052670;28;20267;-69
2022/10/18 02:28:53;;;;;;;0.40;0.40;;;17.30;99.90;;;;;;5052285;28;20301;-68
2022/10/18 02:31:44;;;;;;;0.40;0.40;;;17.30;99.90;;;;;;5052722;28;20209;-69
2022/10/18 02:34:37;;;;;;;0.40;0.40;;;17.20;99.90;;;;;;5052028;28;20193;-69
2022/10/18 02:37:30;;;;;;;0.40;0.40;;;17.30;99.90;;;;;;5053324;28;20729;-69
2022/10/18 02:40:19;;;;;;;0.40;0.40;;;17.20;99.90;;;;;;5052646;28;20351;-69
2022/10/18 02:43:07;;;;;;;0.40;0.40;;;17.30;99.90;;;;;;5052268;28;20723;-69
2022/10/18 02:45:56;;;;;;;0.63;0.63;;;17.30;99.90;;;;;;5054553;28;20207;-67
2022/10/18 02:48:43;;;;;;;0.40;0.40;;;17.20;99.90;;;;;;5068774;28;20256;-68
2022/10/18 02:51:32;;;;;;;0.40;0.40;;;17.20;99.90;;;;;;5050926;28;20241;-69
2022/10/18 02:54:20;;;;;;;0.40;0.40;;;17.10;99.90;;;;;;5037924;28;20287;-69
2022/10/18 02:57:09;;;;;;;0.57;0.57;;;17.20;99.90;;;;;;5034139;28;20793;-68
2022/10/18 02:59:57;;;;;;;0.40;0.40;;;17.20;99.90;;;;;;5081254;22;20807;-70
2022/10/18 03:02:45;;;;;;;0.40;0.40;;;17.20;99.90;;;;;;5070553;28;20759;-72
2022/10/18 03:05:33;;;;;;;0.40;0.40;;;17.20;99.90;;;;;;5071388;28;20275;-73
2022/10/18 03:08:21;;;;;;;0.40;0.40;;;17.20;99.90;;;;;;5070775;28;20284;-73
2022/10/18 03:11:09;;;;;;;2.83;0.77;;;17.10;99.90;;;;;;5050378;28;20227;-71
2022/10/18 03:13:59;;;;;;;1.33;0.98;;;17.00;99.90;;;;;;5050344;28;20273;-71
2022/10/18 03:16:47;;;;;;;0.40;0.40;;;17.10;99.90;;;;;;5049811;28;20741;-71
2022/10/18 03:19:37;;;;;;;0.40;0.40;;;17.10;99.90;;;;;;5049534;28;20306;-71
2022/10/18 03:22:26;;;;;;;0.40;0.40;;;17.00;99.90;;;;;;5049627;28;20213;-71
2022/10/18 03:25:15;;;;;;;0.50;0.50;;;17.10;99.90;;;;;;5050030;28;20201;-74
2022/10/18 03:28:03;;;;;;;0.40;0.40;;;17.20;99.90;;;;;;5049942;28;20285;-74
2022/10/18 03:30:53;;;;;;;0.40;0.40;;;17.10;99.90;;;;;;5051312;28;20674;-72
2022/10/18 03:33:41;;;;;;;0.40;0.40;;;17.00;99.90;;;;;;5050859;28;20277;-72
2022/10/18 03:36:29;;;;;;;0.40;0.40;;;17.10;99.90;;;;;;5049739;28;20685;-73
2022/10/18 03:39:17;;;;;;;0.40;0.40;;;17.10;99.90;;;;;;5050465;28;20707;-70
2022/10/18 03:42:05;;;;;;;0.50;0.50;;;17.00;99.90;;;;;;5052138;28;20290;-71
2022/10/18 03:44:53;;;;;;;0.40;0.40;;;16.90;99.90;;;;;;5054709;28;20193;-70
2022/10/18 03:47:42;;;;;;;0.40;0.40;;;16.80;99.90;;;;;;5053392;28;20243;-72
2022/10/18 03:50:30;;;;;;;0.40;0.40;;;16.90;99.90;;;;;;5054409;28;20288;-70
2022/10/18 03:53:18;;;;;;;0.40;0.40;;;16.90;99.90;;;;;;5054791;28;20244;-71
2022/10/18 03:56:07;;;;;;;0.40;0.40;;;16.70;99.90;;;;;;5054566;28;20276;-71
2022/10/18 03:58:55;;;;;;;0.40;0.40;;;16.70;99.90;;;;;;5054015;28;20308;-71
2022/10/18 04:01:43;;;;;;;0.40;0.40;;;16.70;99.90;;;;;;5054521;28;20251;-69
2022/10/18 04:04:33;;;;;;;0.40;0.40;;;16.60;99.90;;;;;;5054490;28;20222;-70
2022/10/18 04:07:21;;;;;;;0.40;0.40;;;16.60;99.90;;;;;;5054712;28;20299;-72
2022/10/18 04:10:09;;;;;;;0.40;0.40;;;16.60;99.90;;;;;;5053790;28;20351;-72
2022/10/18 04:12:57;;;;;;;0.40;0.40;;;16.70;99.90;;;;;;5054272;28;20271;-70
2022/10/18 04:15:45;;;;;;;0.40;0.40;;;16.60;99.90;;;;;;5054578;28;20208;-72
2022/10/18 04:18:33;;;;;;;0.40;0.40;;;16.60;99.90;;;;;;5053991;28;20280;-70
2022/10/18 04:21:23;;;;;;;0.40;0.40;;;16.60;99.90;;;;;;5054518;28;20351;-70
2022/10/18 04:24:11;;;;;;;0.40;0.40;;;16.60;99.90;;;;;;5053946;28;20335;-72
2022/10/18 04:26:59;;;;;;;0.40;0.40;;;16.50;99.90;;;;;;5055222;28;20287;-71
2022/10/18 04:29:47;;;;;;;0.40;0.40;;;16.60;99.90;;;;;;5054526;28;20666;-73
2022/10/18 04:32:35;;;;;;;0.60;0.60;;;16.60;99.90;;;;;;5054321;28;20283;-71
2022/10/18 04:35:24;;;;;;;0.40;0.40;;;16.60;99.90;;;;;;5054370;28;20281;-70
2022/10/18 04:38:14;;;;;;;0.40;0.40;;;16.50;99.90;;;;;;5054310;28;20212;-73
2022/10/18 04:41:02;;;;;;;0.40;0.40;;;16.50;99.90;;;;;;5054429;28;20198;-72
2022/10/18 04:43:50;;;;;;;0.40;0.40;;;16.60;99.90;;;;;;5054166;28;20216;-71
2022/10/18 04:46:38;;;;;;;0.40;0.40;;;16.50;99.90;;;;;;5054688;28;20197;-71
2022/10/18 04:49:26;;;;;;;0.40;0.40;;;16.60;99.90;;;;;;5053719;28;20302;-72
2022/10/18 04:52:14;;;;;;;0.40;0.40;;;16.60;99.90;;;;;;5053824;28;20198;-73
2022/10/18 04:55:04;;;;;;;0.40;0.40;;;16.60;99.90;;;;;;5053745;28;20276;-73
2022/10/18 04:57:53;;;;;;;0.40;0.40;;;16.60;99.90;;;;;;5053674;28;20608;-71
2022/10/18 05:00:41;;;;;;;0.40;0.40;;;16.60;99.90;;;;;;5052507;28;20231;-70
2022/10/18 05:03:29;;;;;;;0.40;0.40;;;16.50;99.90;;;;;;5053283;28;20229;-71
2022/10/18 05:06:17;;;;;;;0.40;0.40;;;16.50;99.90;;;;;;5053513;28;20208;-73
2022/10/18 05:09:05;;;;;;;0.40;0.40;;;16.60;99.90;;;;;;5058851;28;20225;-71
2022/10/18 05:11:54;;;;;;;0.40;0.40;;;16.50;99.90;;;;;;5069258;28;20228;-71
2022/10/18 05:14:42;;;;;;;0.40;0.40;;;16.40;99.90;;;;;;5068804;28;20253;-73
2022/10/18 05:17:30;;;;;;;0.40;0.40;;;16.50;99.90;;;;;;5064110;28;20193;-71
2022/10/18 05:20:18;;;;;;;0.40;0.40;;;16.60;99.90;;;;;;5054976;28;20225;-71
2022/10/18 05:23:09;;;;;;;0.40;0.40;;;16.50;99.90;;;;;;5053126;28;20307;-70
2022/10/18 05:26:02;;;;;;;0.40;0.40;;;16.60;99.90;;;;;;5051684;28;20281;-70
2022/10/18 05:28:51;;;;;;;0.40;0.40;;;16.50;99.90;;;;;;5052737;28;20314;-74
2022/10/18 05:31:39;;;;;;;0.40;0.40;;;16.50;99.90;;;;;;5051566;28;20205;-74
2022/10/18 05:34:30;;;;;;;0.40;0.40;;;16.50;99.90;;;;;;5052838;28;20189;-72
2022/10/18 05:37:19;;;;;;;0.40;0.40;;;16.40;99.90;;;;;;5052582;28;20284;-70
2022/10/18 05:40:12;;;;;;;0.40;0.40;;;16.40;99.90;;;;;;5052019;28;20225;-71
2022/10/18 05:43:00;;;;;;;0.40;0.40;;;16.50;99.90;;;;;;5052433;28;20506;-73
2022/10/18 05:45:50;;;;;;;0.40;0.40;;;16.40;99.90;;;;;;5051812;28;20201;-72
2022/10/18 05:48:38;;;;;;;0.40;0.40;;;16.40;99.90;;;;;;5046209;28;20356;-70
2022/10/18 05:51:26;;;;;;;0.40;0.40;;;16.50;99.90;;;;;;5043701;28;20236;-70
2022/10/18 05:54:15;;;;;;;0.40;0.40;;;16.40;99.90;;;;;;5052175;28;20194;-69
2022/10/18 05:57:03;;;;;;;0.40;0.40;;;16.40;99.90;;;;;;5053116;28;20745;-73
2022/10/18 05:59:52;;;;;;;0.40;0.40;;;16.40;99.90;;;;;;5050234;28;20304;-72
2022/10/18 06:02:41;;;;;;;0.40;0.40;;;16.40;99.90;;;;;;5051476;28;20205;-72
2022/10/18 06:05:29;;;;;;;0.40;0.40;;;16.40;99.90;;;;;;5051530;28;20221;-70
2022/10/18 06:08:18;;;;;;;0.40;0.40;;;16.40;99.90;;;;;;5052547;28;20202;-73
2022/10/18 06:11:07;;;;;;;0.40;0.40;;;16.40;99.90;;;;;;5051652;28;20713;-71
2022/10/18 06:13:56;;;;;;;0.40;0.40;;;16.30;99.90;;;;;;5052864;28;20239;-72
2022/10/18 06:16:44;;;;;;;0.40;0.40;;;16.20;99.90;;;;;;5052948;28;20197;-72
2022/10/18 06:19:33;;;;;;;0.40;0.40;;;16.30;99.90;;;;;;5051526;28;20295;-70
2022/10/18 06:22:22;;;;;;;0.40;0.40;;;16.30;99.90;;;;;;5052198;28;20657;-69
2022/10/18 06:25:10;;;;;;;0.40;0.40;;;16.30;99.90;;;;;;5051677;28;20217;-71
2022/10/18 06:27:58;;;;;;;0.40;0.40;;;16.30;99.90;;;;;;5050342;28;20284;-72
2022/10/18 06:30:46;;;;;;;0.40;0.40;;;16.10;99.90;;;;;;5051301;28;20660;-71
2022/10/18 06:33:35;;;;;;;0.40;0.40;;;16.50;99.90;;;;;;5051057;28;20271;-73
2022/10/18 06:36:25;;;;;;;0.40;0.40;;;16.20;99.90;;;;;;5056050;28;20229;-71
2022/10/18 06:39:13;;;;;;;0.50;0.50;;;17.10;99.90;;;;;;5032905;28;20223;-74
2022/10/18 06:42:01;;;;;;;0.40;0.40;;;16.30;99.90;;;;;;5048378;28;20661;-67
2022/10/18 06:44:49;;;;;;;0.40;0.40;;;16.30;99.90;;;;;;5052457;28;20217;-72
2022/10/18 06:47:37;;;;;;;0.40;0.40;;;16.30;99.90;;;;;;5047327;28;20205;-69
2022/10/18 06:50:25;;;;;;;0.40;0.40;;;16.00;99.90;;;;;;5051829;28;20252;-68
2022/10/18 06:53:15;;;;;;;0.40;0.40;;;16.30;99.90;;;;;;5043663;28;20197;-68
2022/10/18 06:56:05;;;;;;;0.40;0.40;;;16.30;99.90;;;;;;5054372;28;20197;-69
2022/10/18 06:58:54;;;;;;;0.40;0.40;;;16.30;99.90;;;;;;5032859;28;20679;-74
2022/10/18 07:01:43;;;;;;;0.40;0.40;;;16.30;99.90;;;;;;5051298;28;20194;-69
2022/10/18 07:04:31;;;;;;;0.50;0.50;;;16.30;99.90;;;;;;5046721;28;20213;-68
2022/10/18 07:07:00;;;;;;;0.40;0.40;;;16.30;99.90;;;;;;5050084;28;20267;-70
2022/10/18 07:09:30;;;;;;;0.50;0.50;;;16.30;99.90;;;;;;5042071;28;20636;-74
2022/10/18 07:11:57;;;;;;;0.40;0.40;;;16.20;99.90;;;;;;5040925;28;20198;-69
2022/10/18 07:14:26;;;;;;;0.40;0.40;;;16.30;99.90;;;;;;5043571;28;20662;-71
2022/10/18 07:16:58;;;;;;;0.40;0.40;;;16.20;99.90;;;;;;5053415;28;20248;-70
2022/10/18 07:19:27;;;;;;;0.50;0.50;;;16.20;99.90;;;;;;5045768;28;20221;-67
2022/10/18 07:21:55;;;;;;;0.40;0.40;;;16.20;99.90;;;;;;5054513;28;20887;-70
2022/10/18 07:24:23;;;;;;;0.40;0.40;;;16.10;99.90;;;;;;5054892;28;20213;-70
2022/10/18 07:26:52;;;;;;;0.50;0.50;;;16.20;99.90;;;;;;5054883;28;20666;-70
2022/10/18 07:29:20;;;;;;;0.50;0.50;;;16.20;99.90;;;;;;5054262;28;20724;-69
2022/10/18 07:31:48;;;;;;;0.40;0.40;;;16.30;99.90;;;;;;5050063;28;20578;-68
2022/10/18 07:34:16;;;;;;;0.40;0.40;;;16.20;99.90;;;;;;5054339;28;20844;-70
2022/10/18 07:36:44;;;;;;;0.40;0.40;;;16.20;99.90;;;;;;5047461;28;20649;-71
2022/10/18 07:39:11;;;;;;;0.40;0.40;;;16.30;99.90;;;;;;5045092;28;20629;-67
2022/10/18 07:41:39;;;;;;;0.40;0.40;;;16.30;99.90;;;;;;5051081;28;20666;-73
2022/10/18 07:44:09;;;;;;;0.40;0.40;;;16.30;99.90;;;;;;5054015;28;20851;-70
2022/10/18 07:46:37;;;;;;;0.40;0.40;;;16.30;99.90;;;;;;5054436;28;20235;-72
2022/10/18 07:49:05;;;;;;;0.40;0.40;;;16.40;99.90;;;;;;5054665;28;20736;-71
2022/10/18 07:51:34;;;;;;;0.40;0.40;;;16.30;99.90;;;;;;5053304;28;20631;-71
2022/10/18 07:54:03;;;;;;;0.40;0.40;;;16.30;99.90;;;;;;5054203;28;20701;-72
2022/10/18 07:56:31;;;;;;;0.40;0.40;;;16.20;99.90;;;;;;5054077;28;20689;-73
2022/10/18 07:58:58;;;;;;;0.40;0.40;;;16.10;99.90;;;;;;5054401;28;20244;-70
2022/10/18 08:01:27;;;;;;;0.40;0.40;;;16.10;99.90;;;;;;5053014;28;20566;-71
2022/10/18 08:03:55;;;;;;;0.40;0.40;;;16.10;99.90;;;;;;5054352;28;20679;-67
2022/10/18 08:06:24;;;;;;;0.40;0.40;;;16.00;99.90;;;;;;5050643;28;20709;-71
2022/10/18 08:08:52;;;;;;;0.40;0.40;;;16.00;99.90;;;;;;5052956;28;20667;-72
2022/10/18 08:11:22;;;;;;;0.40;0.40;;;15.90;99.90;;;;;;5053037;28;20209;-70
2022/10/18 08:13:50;;;;;;;0.40;0.40;;;16.10;99.90;;;;;;5049502;28;20764;-69
2022/10/18 08:16:21;;;;;;;0.40;0.40;;;15.90;99.90;;;;;;5054499;28;20625;-70
2022/10/18 08:18:51;;;;;;;0.40;0.40;;;16.00;99.90;;;;;;5053989;28;20296;-69
2022/10/18 08:21:21;;;;;;;0.40;0.40;;;16.00;99.90;;;;;;5050801;28;20677;-67
2022/10/18 08:23:50;;;;;;;0.40;0.40;;;16.00;99.90;;;;;;5048607;28;20614;-69
2022/10/18 08:26:20;;;;;;;0.40;0.40;;;16.00;99.90;;;;;;5053061;28;20678;-68
2022/10/18 08:28:49;;;;;;;0.40;0.40;;;16.00;99.90;;;;;;5047354;28;20636;-71
2022/10/18 08:31:25;;;;;;;0.40;0.40;;;16.00;99.90;;;;;;5052700;28;20580;-68
2022/10/18 08:33:56;;;;;;;0.50;0.50;;;16.00;99.90;;;;;;5053611;28;20821;-71
2022/10/18 08:36:24;;;;;;;0.40;0.40;;;16.00;99.90;;;;;;5053293;28;20607;-68
2022/10/18 08:38:52;;;;;;;0.40;0.40;;;16.00;99.90;;;;;;5053388;28;20693;-68
2022/10/18 08:41:42;;;;;;;0.40;0.40;;;16.00;99.90;;;;;;5046726;28;20695;-68
2022/10/18 08:44:17;;;;;;;0.40;0.40;;;16.10;99.90;;;;;;5054150;28;20623;-68
2022/10/18 08:46:48;;;;;;;0.40;0.40;;;16.10;99.90;;;;;;5048605;28;20731;-69
2022/10/18 08:49:25;;;;;;;0.50;0.50;;;16.10;99.90;;;;;;5053527;28;20682;-69
2022/10/18 08:51:53;;;;;;;0.40;0.40;;;16.00;99.90;;;;;;5054332;28;20571;-70
2022/10/18 08:54:29;;;;;;;0.40;0.40;;;16.10;99.90;;;;;;5050309;28;20571;-71
2022/10/18 08:57:00;;;;;;;0.40;0.40;;;16.20;99.90;;;;;;5047404;28;20577;-70
2022/10/18 08:59:33;;;;;;;0.40;0.40;;;16.10;99.90;;;;;;5051557;28;20970;-71
2022/10/18 09:02:12;;;;;;;0.40;0.40;;;16.00;99.90;;;;;;5044592;28;20618;-69
2022/10/18 09:04:48;;;;;;;0.40;0.40;;;15.90;99.90;;;;;;5054160;28;20205;-69
2022/10/18 09:07:32;;;;;;;0.50;0.50;;;16.00;99.90;;;;;;5050373;28;20197;-70
2022/10/18 09:10:06;;;;;;;0.40;0.40;;;15.80;99.90;;;;;;5053464;28;20276;-71
2022/10/18 09:13:04;;;;;;;0.40;0.40;;;15.70;99.90;;;;;;5053790;28;20204;-69
2022/10/18 09:15:40;;;;;;;0.40;0.40;;;15.80;99.90;;;;;;5051152;28;20198;-68
2022/10/18 09:18:20;;;;;;;0.40;0.40;;;15.60;99.90;;;;;;5052133;28;20683;-71
2022/10/18 09:20:56;;;;;;;0.40;0.40;;;15.70;99.90;;;;;;5048818;28;20300;-69
2022/10/18 09:23:38;;;;;;;0.40;0.40;;;15.80;99.90;;;;;;5053630;28;20247;-70
2022/10/18 09:26:10;;;;;;;0.40;0.40;;;15.70;99.90;;;;;;5052249;28;20217;-69
2022/10/18 09:28:53;;;;;;;0.50;0.50;;;15.60;99.90;;;;;;5053266;28;20285;-71
2022/10/18 09:31:28;;;;;;;1.90;1.80;;;15.70;99.90;;;;;;5052776;28;20788;-71
2022/10/18 09:34:00;;;;;;;0.40;0.40;;;15.70;99.90;;;;;;5052614;28;20201;-69
2022/10/18 09:36:34;;;;;;;0.40;0.40;;;15.60;99.90;;;;;;5053056;28;20202;-69
2022/10/18 09:39:04;;;;;;;0.43;0.43;;;15.70;99.90;;;;;;5048065;28;20230;-70
2022/10/18 09:41:37;;;;;;;0.40;0.40;;;15.70;99.90;;;;;;5051608;28;20258;-72
2022/10/18 09:44:13;;;;;;;0.40;0.40;;;15.70;99.90;;;;;;5052510;28;20240;-71
2022/10/18 09:46:46;;;;;;;0.40;0.40;;;15.60;99.90;;;;;;5051860;28;20259;-70
2022/10/18 09:49:18;;;;;;;0.50;0.50;;;15.70;99.90;;;;;;5051777;28;20263;-69
2022/10/18 09:51:49;;;;;;;0.40;0.40;;;15.70;99.90;;;;;;5052241;28;20216;-71
2022/10/18 09:54:23;;;;;;;0.40;0.40;;;15.80;99.90;;;;;;5052409;28;20236;-72
2022/10/18 09:56:57;;;;;;;0.40;0.40;;;15.80;99.90;;;;;;5051145;28;20206;-69
2022/10/18 09:59:34;;;;;;;0.50;0.50;;;15.80;99.90;;;;;;5046992;28;20233;-71
2022/10/18 10:02:02;;;;;;;0.40;0.40;;;15.80;99.90;;;;;;5048298;28;20197;-68
2022/10/18 10:04:30;;;;;;;0.40;0.40;;;15.90;99.90;;;;;;5050633;28;20233;-72
2022/10/18 10:07:02;;;;;;;0.40;0.40;;;15.90;99.90;;;;;;5047478;28;20304;-72
2022/10/18 10:09:36;;;;;;;0.50;0.50;;;15.80;99.90;;;;;;5048034;28;20213;-69
2022/10/18 10:12:05;;;;;;;0.40;0.40;;;15.80;99.90;;;;;;5050049;28;20263;-68
2022/10/18 10:14:44;;;;;;;0.40;0.40;;;15.80;99.90;;;;;;5050790;28;20201;-70
2022/10/18 10:17:23;;;;;;;0.40;0.40;;;15.90;99.90;;;;;;5051092;28;20224;-70
2022/10/18 10:19:58;;;;;;;0.40;0.40;;;15.90;99.90;;;;;;5051818;28;20221;-69
2022/10/18 10:22:35;;;;;;;0.40;0.40;;;15.90;99.90;;;;;;5052095;28;20653;-69
2022/10/18 10:25:05;;;;;;;0.40;0.40;;;15.90;99.90;;;;;;5050951;28;20211;-69
2022/10/18 10:27:42;;;;;;;0.40;0.40;;;15.90;99.90;;;;;;5051309;28;20229;-69
2022/10/18 10:30:24;;;;;;;0.40;0.40;;;15.90;99.90;;;;;;5050761;28;20227;-68
2022/10/18 10:32:54;;;;;;;0.40;0.40;;;15.90;99.90;;;;;;5051677;28;20213;-68
2022/10/18 10:35:31;;;;;;;0.40;0.40;;;16.00;99.90;;;;;;5043490;28;20292;-69
2022/10/18 10:38:26;;;;;;;0.40;0.40;;;16.00;99.90;;;;;;5051043;28;20205;-71
2022/10/18 10:40:55;;;;;;;0.40;0.40;;;16.00;99.90;;;;;;5050650;28;20263;-70
2022/10/18 10:43:26;;;;;;;0.40;0.40;;;15.90;99.90;;;;;;5050654;28;20328;-71
2022/10/18 10:46:11;;;;;;;0.40;0.40;;;15.90;99.90;;;;;;5050999;28;20228;-71
2022/10/18 10:48:46;;;;;;;0.40;0.40;;;15.80;99.90;;;;;;5051847;28;20201;-67
2022/10/18 10:51:16;;;;;;;0.40;0.40;;;15.90;99.90;;;;;;5049512;28;20747;-68
2022/10/18 10:53:51;;;;;;;0.40;0.40;;;15.90;99.90;;;;;;5051065;28;20205;-67
2022/10/18 10:56:24;;;;;;;0.40;0.40;;;16.00;99.90;;;;;;5051443;28;20207;-67
2022/10/18 10:58:54;;;;;;;0.40;0.40;;;16.00;99.90;;;;;;5051353;28;21075;-69
2022/10/18 11:01:25;;;;;;;0.40;0.40;;;16.00;99.90;;;;;;5050420;28;20614;-70
2022/10/18 11:03:55;;;;;;;0.40;0.40;;;15.90;99.90;;;;;;5051938;28;20674;-70
2022/10/18 11:06:32;;;;;;;0.95;0.95;;;15.90;99.90;;;;;;5052181;28;20236;-69
2022/10/18 11:09:05;;;;;;;0.40;0.40;;;15.90;99.90;;;;;;5052001;28;20240;-69
2022/10/18 11:11:39;;;;;;;0.40;0.40;;;15.80;99.90;;;;;;5051604;28;20208;-67
2022/10/18 11:14:19;;;;;;;0.40;0.40;;;15.80;99.90;;;;;;5052201;28;20641;-70
2022/10/18 11:17:00;;;;;;;0.40;0.40;;;15.80;99.90;;;;;;5051462;28;20626;-68
2022/10/18 11:19:42;;;;;;;0.40;0.40;;;16.00;99.90;;;;;;5051233;28;20217;-69
2022/10/18 11:22:17;;;;;;;0.40;0.40;;;16.00;99.90;;;;;;5052557;28;20618;-71
2022/10/18 11:24:46;;;;;;;0.40;0.40;;;15.90;99.90;;;;;;5051296;28;20564;-71
2022/10/18 11:27:19;;;;;;;0.40;0.40;;;15.90;99.90;;;;;;5052140;28;21612;-69
2022/10/18 11:30:07;;;;;;;0.40;0.40;;;15.90;99.90;;;;;;5050435;28;20637;-68
2022/10/18 11:32:52;;;;;;;0.40;0.40;;;16.00;99.90;;;;;;5051934;28;20573;-70
2022/10/18 11:35:31;;;;;;;0.40;0.40;;;15.90;99.90;;;;;;5051341;28;20205;-69
2022/10/18 11:38:10;;;;;;;0.40;0.40;;;15.80;99.90;;;;;;5051063;28;20193;-70
2022/10/18 11:41:01;;;;;;;0.40;0.40;;;15.80;99.90;;;;;;5050158;28;20225;-70
2022/10/18 11:43:37;;;;;;;0.40;0.40;;;15.80;99.90;;;;;;5048172;28;20685;-69
2022/10/18 11:46:35;;;;;;;0.40;0.40;;;15.90;99.90;;;;;;5051600;28;20243;-70
2022/10/18 11:49:21;;;;;;;0.45;0.45;;;15.90;99.90;;;;;;5050691;28;20228;-68
2022/10/18 11:52:01;;;;;;;0.40;0.40;;;15.90;99.90;;;;;;5050165;28;20220;-65
2022/10/18 11:54:55;;;;;;;0.40;0.40;;;15.90;99.90;;;;;;5050504;28;20204;-67
2022/10/18 11:57:43;;;;;;;0.40;0.40;;;15.90;99.90;;;;;;5049846;28;20585;-66
2022/10/18 12:00:24;;;;;;;0.60;0.60;;;15.90;99.90;;;;;;5048778;28;20295;-70
2022/10/18 12:03:10;;;;;;;0.40;0.40;;;15.80;99.90;;;;;;5053416;28;20209;-69
2022/10/18 12:05:40;;;;;;;0.40;0.40;;;15.80;99.90;;;;;;5054459;28;20246;-69
2022/10/18 12:08:13;;;;;;;0.40;0.40;;;15.90;99.90;;;;;;5054264;28;20205;-69
2022/10/18 12:10:46;;;;;;;0.40;0.40;;;15.90;99.90;;;;;;5053434;28;20224;-68
2022/10/18 12:13:39;;;;;;;0.40;0.40;;;15.90;99.90;;;;;;5052827;28;20193;-69
2022/10/18 12:16:09;;;;;;;0.98;0.98;;;16.00;99.90;;;;;;5054308;28;20259;-70
2022/10/18 12:18:47;;;;;;;0.50;0.50;;;15.90;99.90;;;;;;5054808;28;20224;-70
2022/10/18 12:21:18;;;;;;;0.40;0.40;;;15.90;99.90;;;;;;5054014;28;20197;-69
2022/10/18 12:23:56;;;;;;;0.77;0.77;;;15.90;99.90;;;;;;5048331;28;20215;-72
2022/10/18 12:26:27;;;;;;;0.40;0.40;;;16.00;99.90;;;;;;5050631;28;20194;-68
2022/10/18 12:29:04;;;;;;;0.40;0.40;;;16.00;99.90;;;;;;5054428;28;20217;-70
2022/10/18 12:31:37;;;;;;;0.40;0.40;;;16.00;99.90;;;;;;5049216;28;20280;-69
2022/10/18 12:34:24;;;;;;;0.55;0.55;;;16.10;99.90;;;;;;5054664;28;20197;-69
2022/10/18 12:37:12;;;;;;;0.40;0.40;;;16.00;99.90;;;;;;5055592;28;20247;-70
2022/10/18 12:39:43;;;;;;;0.40;0.40;;;16.00;99.90;;;;;;5047760;28;20309;-67
2022/10/18 12:42:34;;;;;;;0.40;0.40;;;16.00;99.90;;;;;;5052245;28;20225;-67
2022/10/18 12:45:06;;;;;;;0.40;0.40;;;16.00;99.90;;;;;;5052572;28;20248;-69
2022/10/18 12:47:34;;;;;;;0.40;0.40;;;16.10;99.90;;;;;;5053576;28;20220;-68
2022/10/18 12:50:05;;;;;;;0.40;0.40;;;16.00;99.90;;;;;;5054048;28;20221;-71
2022/10/18 12:52:35;;;;;;;0.40;0.40;;;16.10;99.90;;;;;;5053808;28;20231;-69
2022/10/18 12:55:26;;;;;;;0.60;0.60;;;16.00;99.90;;;;;;5054331;28;20236;-69
2022/10/18 12:58:03;;;;;;;0.40;0.40;;;16.10;99.90;;;;;;5049853;28;20200;-72
2022/10/18 13:00:52;;;;;;;0.40;0.40;;;16.10;99.90;;;;;;5052862;28;20233;-70
2022/10/18 13:03:57;;;;;;;0.40;0.40;;;16.10;99.90;;;;;;5034962;28;20281;-70
2022/10/18 13:06:25;;;;;;;0.40;0.40;;;16.20;99.90;;;;;;5034058;28;20201;-70
2022/10/18 13:09:19;;;;;;;0.40;0.40;;;16.20;99.90;;;;;;5044715;28;20228;-69
2022/10/18 13:11:48;;;;;;;1.00;0.60;;;16.30;99.90;;;;;;5053852;28;20197;-70
2022/10/18 13:14:40;;;;;;;0.50;0.50;;;16.30;99.90;;;;;;5053382;28;20344;-71
2022/10/18 13:17:35;;;;;;;0.40;0.40;;;16.20;99.90;;;;;;5052296;28;20201;-68
2022/10/18 13:20:25;;;;;;;0.40;0.40;;;16.30;99.90;;;;;;5052493;28;20232;-67
2022/10/18 13:23:07;;;;;;;0.40;0.40;;;16.40;99.90;;;;;;5053690;28;20575;-70
2022/10/18 13:25:49;;;;;;;1.60;0.70;;;16.40;99.90;;;;;;5052927;28;20717;-71
2022/10/18 13:28:25;;;;;;;0.40;0.40;;;16.40;99.90;;;;;;5053527;28;20690;-70
2022/10/18 13:30:59;;;;;;;0.40;0.40;;;16.40;99.90;;;;;;5053247;28;20661;-70
2022/10/18 13:33:37;;;;;;;0.40;0.40;;;16.40;99.90;;;;;;5053500;28;20749;-71
2022/10/18 13:36:19;;;;;;;0.40;0.40;;;16.60;99.90;;;;;;5053292;28;20704;-70
2022/10/18 13:39:04;;;;;;;0.40;0.40;;;16.80;99.90;;;;;;5053181;28;20694;-66
2022/10/18 13:41:59;;;;;;;3.30;1.42;;;17.00;99.90;;;;;;5053215;28;20736;-72
2022/10/18 13:44:30;;;;;;;0.40;0.40;;;17.10;99.90;;;;;;5053238;28;20296;-72
2022/10/18 13:47:32;;;;;;;0.40;0.40;;;17.00;99.90;;;;;;5053290;28;20627;-70
2022/10/18 13:50:16;;;;;;;0.40;0.40;;;17.10;99.90;;;;;;5053501;28;20689;-69
2022/10/18 13:53:14;;;;;;;5.07;2.70;;;17.00;99.90;;;;;;5053270;28;20710;-73
2022/10/18 13:55:53;;;;;;;0.40;0.40;;;16.90;99.90;;;;;;5053310;28;20205;-68
2022/10/18 13:58:35;;;;;;;0.60;0.60;;;16.70;99.90;;;;;;5055407;28;20193;-69
2022/10/18 14:01:22;;;;;;;0.40;0.40;;;16.70;99.90;;;;;;5058988;28;20676;-69
2022/10/18 14:04:15;;;;;;;0.40;0.40;;;16.70;99.90;;;;;;5058938;28;20197;-69
2022/10/18 14:06:46;;;;;;;1.67;1.20;;;16.90;99.90;;;;;;5054258;28;20670;-68
2022/10/18 14:09:19;;;;;;;0.50;0.50;;;16.90;99.90;;;;;;5052113;28;20218;-72